Observations for Trim Patrick St
| Time | AQI | Temp °C | Hum % | Pres Pa | CO μg/m³ | H₂S μg/m³ | NO μg/m³ | NO₂ μg/m³ | O₃ μg/m³ | SO₂ μg/m³ | PM1 μg/m³ | PM2.5 μg/m³ | PM10 μg/m³ |
|---|---|---|---|---|---|---|---|---|---|---|---|---|---|
| Monday 3 August 2026 | |||||||||||||
| 18:13 | 4 | 24.4 | 41 | 68,965 | 0 | 20.17 | 1.01 | 57.31 | 83.58 | 8.13 | 4.57 | 9.34 | 10.27 |
| 18:12 | 4 | 24.4 | 41 | 68,975 | 0 | 17.78 | 0.94 | 27.36 | 114.19 | 7.84 | 2.86 | 9.35 | 10.28 |
| 18:11 | 4 | 24.4 | 41 | 68,953 | 0 | 17.62 | 0.93 | 26.19 | 105.96 | 7.65 | 3.71 | 9.36 | 10.29 |
| 18:10 | 4 | 24.5 | 40 | 68,955 | 0 | 17.51 | 0.94 | 25.37 | 108.86 | 7.82 | 4.57 | 9.36 | 10.3 |
| 18:09 | 4 | 24.5 | 40 | 68,957 | 0 | 15.71 | 0.91 | 18.24 | 120.77 | 7.7 | 2.86 | 9.38 | 10.31 |
| 18:08 | 4 | 24.6 | 40 | 68,963 | 0 | 16.26 | 0.91 | 19.92 | 113.65 | 7.86 | 3.71 | 10.16 | 11.18 |
| 18:07 | 4 | 24.6 | 40 | 68,967 | 0 | 15.7 | 0.93 | 22.96 | 123.82 | 7.86 | 4.57 | 10.17 | 11.18 |
| 18:06 | 4 | 24.7 | 40 | 68,969 | 0 | 16.15 | 0.93 | 18.66 | 105.58 | 8.65 | 2.86 | 9.39 | 10.33 |
| 18:05 | 4 | 24.7 | 40 | 68,947 | 0 | 15.25 | 0.93 | 18.04 | 94.71 | 7.93 | 2.86 | 7.84 | 8.62 |
| 18:04 | 4 | 24.8 | 40 | 68,943 | 0 | 20.61 | 0.94 | 36.87 | 106.47 | 8.52 | 2.86 | 8.62 | 9.48 |
| 18:03 | 4 | 24.8 | 40 | 68,943 | 0 | 13.76 | 0.94 | 21.49 | 105.69 | 7.83 | 3.71 | 9.42 | 10.36 |
| 18:02 | 4 | 24.9 | 40 | 68,965 | 0 | 16.73 | 0.94 | 18.32 | 106.85 | 8.97 | 2.86 | 8.64 | 9.5 |
| 18:01 | 4 | 25 | 40 | 68,971 | 0 | 16.06 | 0.93 | 18.82 | 109.41 | 8.5 | 2.86 | 9.43 | 10.38 |
| 18:00 | 4 | 25 | 39 | 68,979 | 0 | 15.9 | 0.93 | 22.23 | 106.99 | 8.34 | 2.86 | 9.45 | 10.39 |
| 17:59 | 4 | 25.1 | 39 | 68,957 | 0 | 16.51 | 0.91 | 22.08 | 94.03 | 8.55 | 4.57 | 11.02 | 12.12 |
| 17:57 | 4 | 25.2 | 39 | 68,957 | 0 | 16.21 | 0.93 | 18.73 | 110.36 | 9.24 | 6.29 | 12.6 | 13.86 |
| 17:56 | 4 | 25.2 | 39 | 68,955 | 0 | 17.76 | 0.93 | 24.04 | 103.4 | 9.3 | 5.43 | 12.61 | 13.87 |
| 17:55 | 4 | 25.3 | 39 | 68,951 | 0 | 17.86 | 0.94 | 24.82 | 125.77 | 8.77 | 5.43 | 12.61 | 13.87 |
| 17:54 | 4 | 25.3 | 39 | 68,975 | 0 | 17.67 | 0.99 | 19.48 | 109.63 | 9.51 | 5.43 | 12.62 | 13.88 |
| 17:53 | 4 | 25.4 | 38 | 68,979 | 0 | 16.82 | 0.97 | 24.56 | 117.67 | 9.11 | 7.14 | 13.44 | 14.78 |